Time;durP1;ratioP1;P1;durP2;ratioP2;P2;SDS_P1;SDS_P2;PMS_P1;PMS_P2;Temp;Humidity;BMP_temperature;BMP_pressure;BME280_temperature;BME280_humidity;BME280_pressure;Samples;Min_cycle;Max_cycle;Signal;HPM_P1;HPM_P2
2024/02/10 00:00:35;;;;;;;80.60;38.80;;;;;;;7.17;100.00;96827.42;135592;1279;22535;-70
2024/02/10 00:03:58;;;;;;;80.10;39.00;;;;;;;7.04;100.00;96829.55;135604;1279;22559;-71
2024/02/10 00:07:00;;;;;;;76.70;38.90;;;;;;;7.04;100.00;96825.66;135671;1279;22546;-64
2024/02/10 00:10:04;;;;;;;;;;;;;;;7.10;100.00;96821.55;135629;1279;25673;-70
2024/02/10 00:13:07;;;;;;;79.80;38.50;;;;;;;7.16;100.00;96824.58;135588;1279;22586;-73
2024/02/10 00:16:09;;;;;;;79.10;38.60;;;;;;;7.25;100.00;96823.70;135606;1279;22545;-73
2024/02/10 00:19:12;;;;;;;80.80;39.80;;;;;;;7.27;100.00;96827.88;135632;1279;22544;-66
2024/02/10 00:22:16;;;;;;;80.90;41.10;;;;;;;7.23;100.00;96824.67;135645;1279;24287;-60
2024/02/10 00:25:21;;;;;;;82.90;40.80;;;;;;;7.18;100.00;96826.82;135615;1279;22575;-75
2024/02/10 00:28:24;;;;;;;79.00;40.00;;;;;;;7.12;100.00;96828.02;135621;1263;24212;-68
2024/02/10 00:31:28;;;;;;;80.10;39.90;;;;;;;7.22;100.00;96826.58;135632;1279;22548;-63
2024/02/10 00:34:33;;;;;;;78.50;39.70;;;;;;;7.29;100.00;96826.52;135628;1279;22536;-64
2024/02/10 00:37:36;;;;;;;80.70;40.60;;;;;;;7.22;100.00;96829.30;135632;1279;22590;-71
2024/02/10 00:40:38;;;;;;;81.50;41.40;;;;;;;7.28;100.00;96825.71;135668;1279;22674;-71
2024/02/10 00:43:43;;;;;;;;;;;;;;;7.36;100.00;96827.90;135615;1279;22516;-63
2024/02/10 00:46:46;;;;;;;86.90;41.20;;;;;;;7.49;100.00;96831.89;135656;1279;22548;-74
2024/02/10 00:49:48;;;;;;;86.40;42.70;;;;;;;7.70;100.00;96839.07;135669;1260;22529;-73
2024/02/10 00:52:51;;;;;;;82.60;40.40;;;;;;;7.66;100.00;96847.52;135419;1279;22569;-61
2024/02/10 00:55:54;;;;;;;81.50;39.80;;;;;;;7.76;100.00;96845.02;135627;1279;22665;-63
2024/02/10 00:58:56;;;;;;;85.10;42.50;;;;;;;7.75;100.00;96848.04;135596;1279;22554;-69
2024/02/10 01:02:00;;;;;;;;;;;;;;;7.75;100.00;96845.84;135646;1279;22516;-60
2024/02/10 01:05:05;;;;;;;78.90;39.70;;;;;;;7.73;100.00;96846.84;135643;1264;22770;-60
2024/02/10 01:08:08;;;;;;;74.70;38.40;;;;;;;7.69;100.00;96843.86;135622;1279;23156;-73
2024/02/10 01:11:11;;;;;;;78.10;39.30;;;;;;;7.69;100.00;96840.40;135542;1279;22641;-67
2024/02/10 01:14:14;;;;;;;81.70;42.90;;;;;;;7.67;100.00;96836.70;135631;1279;22539;-65
2024/02/10 01:17:16;;;;;;;;;;;;;;;7.73;100.00;96833.98;135663;1279;22525;-73
2024/02/10 01:20:19;;;;;;;79.90;42.40;;;;;;;7.89;100.00;96835.09;135640;1279;24378;-71
2024/02/10 01:23:21;;;;;;;;;;;;;;;7.81;100.00;96828.79;135630;1262;22520;-66
2024/02/10 01:26:24;;;;;;;84.30;41.90;;;;;;;7.70;100.00;96828.10;135666;1260;22606;-67
2024/02/10 01:29:27;;;;;;;;;;;;;;;7.64;100.00;96824.73;135547;1279;22533;-69
2024/02/10 01:32:30;;;;;;;76.70;38.80;;;;;;;7.73;100.00;96825.05;135614;1279;22659;-70
2024/02/10 01:35:33;;;;;;;79.10;40.90;;;;;;;7.83;100.00;96823.73;135662;1279;22540;-64
2024/02/10 01:38:37;;;;;;;75.20;40.00;;;;;;;7.91;100.00;96825.52;135626;1279;22586;-70
2024/02/10 01:41:39;;;;;;;73.20;38.90;;;;;;;7.97;100.00;96823.79;135618;1279;22539;-73
2024/02/10 01:44:45;;;;;;;75.80;39.70;;;;;;;8.01;100.00;96825.95;135626;1279;22553;-62
2024/02/10 01:47:47;;;;;;;78.20;40.90;;;;;;;8.03;100.00;96821.80;135626;1279;22562;-74
2024/02/10 01:50:50;;;;;;;;;;;;;;;8.10;100.00;96824.15;135537;1279;22549;-65
2024/02/10 01:53:52;;;;;;;79.60;40.30;;;;;;;8.02;100.00;96824.14;135617;1279;24394;-60
2024/02/10 01:56:55;;;;;;;73.60;39.50;;;;;;;8.01;100.00;96826.29;135653;1279;22552;-61
2024/02/10 01:59:59;;;;;;;77.30;39.20;;;;;;;7.93;100.00;96829.03;135666;1279;24610;-74
2024/02/10 02:03:01;;;;;;;74.80;38.80;;;;;;;7.93;100.00;96825.33;135630;1279;22556;-59
2024/02/10 02:06:05;;;;;;;76.10;38.80;;;;;;;7.95;100.00;96829.38;135593;1270;22533;-71
2024/02/10 02:09:08;;;;;;;;;;;;;;;8.18;100.00;96829.45;135630;1279;22528;-68
2024/02/10 02:12:11;;;;;;;;;;;;;;;8.21;100.00;96828.82;135585;1279;25246;-64
2024/02/10 02:15:13;;;;;;;73.00;37.40;;;;;;;8.23;100.00;96828.27;135668;1279;24199;-71
2024/02/10 02:18:16;;;;;;;74.40;38.50;;;;;;;8.26;100.00;96829.64;135581;1279;22533;-70
2024/02/10 02:21:18;;;;;;;;;;;;;;;8.15;100.00;96827.21;135595;1279;22553;-72
2024/02/10 02:24:22;;;;;;;75.30;38.80;;;;;;;8.12;100.00;96826.11;135611;1279;22649;-65
2024/02/10 02:27:25;;;;;;;67.40;35.70;;;;;;;8.13;100.00;96828.43;135614;1264;22562;-69
2024/02/10 02:30:27;;;;;;;;;;;;;;;8.17;100.00;96827.23;135652;1279;26498;-68
2024/02/10 02:33:31;;;;;;;72.60;36.50;;;;;;;8.35;100.00;96824.51;135629;1279;22545;-71
2024/02/10 02:36:35;;;;;;;68.80;36.60;;;;;;;8.37;100.00;96824.91;135599;1279;22540;-63
2024/02/10 02:39:38;;;;;;;71.00;36.90;;;;;;;8.38;100.00;96824.08;135580;1279;22564;-71
2024/02/10 02:42:40;;;;;;;71.50;38.20;;;;;;;8.33;100.00;96825.89;135593;1279;22565;-72
2024/02/10 02:45:43;;;;;;;79.00;39.20;;;;;;;8.43;100.00;96823.21;135441;1279;22553;-70
2024/02/10 02:48:46;;;;;;;70.70;37.20;;;;;;;8.47;100.00;96822.71;135424;1279;22565;-71
2024/02/10 02:51:48;;;;;;;;;;;;;;;8.54;100.00;96820.77;135622;1279;22510;-73
2024/02/10 02:54:53;;;;;;;65.60;35.70;;;;;;;8.45;100.00;96821.44;135610;1279;23963;-72
2024/02/10 02:57:56;;;;;;;65.90;34.40;;;;;;;8.50;100.00;96827.48;135591;1279;22539;-71
2024/02/10 03:00:58;;;;;;;69.60;35.50;;;;;;;8.50;100.00;96827.02;135591;1279;25345;-69
2024/02/10 03:04:01;;;;;;;67.00;35.20;;;;;;;8.53;100.00;96826.91;135610;1279;22561;-72
2024/02/10 03:07:04;;;;;;;70.70;36.60;;;;;;;8.60;100.00;96827.31;135631;1279;22519;-64
2024/02/10 03:10:06;;;;;;;;;;;;;;;8.46;100.00;96827.61;135623;1279;22510;-67
2024/02/10 03:13:09;;;;;;;71.10;38.00;;;;;;;8.45;100.00;96826.31;135615;1279;23959;-71
2024/02/10 03:16:12;;;;;;;72.40;36.70;;;;;;;8.44;100.00;96826.38;135599;1279;22622;-72
2024/02/10 03:19:15;;;;;;;67.30;35.20;;;;;;;8.49;100.00;96823.57;135651;1279;22564;-61
2024/02/10 03:22:18;;;;;;;;;;;;;;;8.57;100.00;96824.48;135553;1279;22544;-69
2024/02/10 03:25:20;;;;;;;64.90;34.30;;;;;;;8.52;100.00;96821.38;135504;1279;22536;-69
2024/02/10 03:28:24;;;;;;;66.50;34.20;;;;;;;8.48;100.00;96817.92;135435;1279;24208;-61
2024/02/10 03:31:26;;;;;;;66.00;35.00;;;;;;;8.52;100.00;96823.17;135515;1279;25320;-64
2024/02/10 03:34:29;;;;;;;65.50;33.10;;;;;;;8.50;100.00;96826.61;135591;1279;22546;-69
2024/02/10 03:37:32;;;;;;;;;;;;;;;8.51;100.00;96823.91;135628;1262;24231;-62
2024/02/10 03:40:35;;;;;;;68.80;34.70;;;;;;;8.55;100.00;96826.95;135605;1279;22825;-64
2024/02/10 03:43:37;;;;;;;70.10;35.70;;;;;;;8.52;100.00;96831.89;135608;1279;22541;-69
2024/02/10 03:46:40;;;;;;;;;;;;;;;8.55;100.00;96831.59;135612;1279;22536;-72
2024/02/10 03:49:42;;;;;;;69.00;35.10;;;;;;;8.54;100.00;96833.63;135591;1279;25298;-64
2024/02/10 03:52:45;;;;;;;;;;;;;;;8.54;100.00;96838.17;135628;1279;22527;-62
2024/02/10 03:55:51;;;;;;;65.00;31.70;;;;;;;8.49;100.00;96835.36;135581;1279;23134;-61
2024/02/10 03:58:54;;;;;;;64.40;33.10;;;;;;;8.52;100.00;96836.42;135654;1279;22649;-65
2024/02/10 04:01:56;;;;;;;;;;;;;;;8.60;100.00;96836.91;135620;1279;22506;-65
2024/02/10 04:04:59;;;;;;;61.30;32.10;;;;;;;8.64;100.00;96836.41;135636;1279;22529;-70
2024/02/10 04:08:02;;;;;;;;;;;;;;;8.75;100.00;96832.34;135635;1279;22508;-64
2024/02/10 04:11:07;;;;;;;63.50;32.60;;;;;;;8.86;100.00;96835.30;135521;1279;22551;-61
2024/02/10 04:14:09;;;;;;;65.20;34.00;;;;;;;8.85;100.00;96834.98;135625;1277;22541;-70
2024/02/10 04:17:12;;;;;;;66.50;34.60;;;;;;;8.80;100.00;96835.60;135674;1279;22542;-73
2024/02/10 04:20:19;;;;;;;;;;;;;;;8.90;100.00;96836.81;135600;1279;25272;-67
2024/02/10 04:23:23;;;;;;;68.30;35.60;;;;;;;8.91;100.00;96832.20;135586;1260;23136;-63
2024/02/10 04:26:25;;;;;;;61.50;31.80;;;;;;;9.02;100.00;96830.23;135546;1279;22536;-65
2024/02/10 04:29:28;;;;;;;61.60;32.00;;;;;;;9.06;100.00;96830.71;135658;1279;22721;-65
2024/02/10 04:32:31;;;;;;;60.90;30.90;;;;;;;9.08;100.00;96828.02;135662;1262;22532;-70
2024/02/10 04:35:33;;;;;;;60.40;32.10;;;;;;;9.17;100.00;96825.23;135663;1279;22556;-65
2024/02/10 04:38:36;;;;;;;59.90;33.00;;;;;;;9.17;100.00;96822.63;135632;1279;22568;-62
2024/02/10 04:41:39;;;;;;;61.10;33.00;;;;;;;9.20;100.00;96818.72;135637;1279;22558;-70
2024/02/10 04:44:42;;;;;;;68.60;34.60;;;;;;;9.11;100.00;96818.48;135660;1279;24742;-71
2024/02/10 04:47:44;;;;;;;67.10;33.00;;;;;;;9.06;100.00;96822.59;135618;1279;24411;-63
2024/02/10 04:50:47;;;;;;;;;;;;;;;9.22;100.00;96818.73;135643;1262;22576;-69
2024/02/10 04:53:49;;;;;;;66.40;35.20;;;;;;;9.21;100.00;96812.56;135632;1263;22582;-62
2024/02/10 04:56:52;;;;;;;;;;;;;;;9.20;100.00;96811.77;135624;1279;22525;-71
2024/02/10 04:59:54;;;;;;;61.90;32.40;;;;;;;9.25;100.00;96809.02;135613;1279;22532;-64
2024/02/10 05:02:57;;;;;;;;;;;;;;;9.25;100.00;96807.03;135631;1279;22504;-63
2024/02/10 05:05:59;;;;;;;63.20;33.10;;;;;;;9.12;100.00;96808.85;135555;1279;22533;-62
2024/02/10 05:09:02;;;;;;;;;;;;;;;9.14;100.00;96810.15;135653;1279;25242;-72
2024/02/10 05:12:04;;;;;;;70.90;36.10;;;;;;;9.13;100.00;96810.24;135596;1279;22527;-64
2024/02/10 05:15:09;;;;;;;;;;;;;;;9.04;100.00;96811.05;135607;1279;22514;-70
2024/02/10 05:18:11;;;;;;;63.30;32.20;;;;;;;8.92;100.00;96808.05;135616;1279;22651;-70
2024/02/10 05:21:14;;;;;;;58.40;30.30;;;;;;;8.89;100.00;96812.02;135570;1279;22649;-67
2024/02/10 05:24:16;;;;;;;;;;;;;;;8.83;100.00;96810.25;135561;1262;22518;-60
2024/02/10 05:27:19;;;;;;;57.20;29.70;;;;;;;8.79;100.00;96814.39;135612;1279;22566;-60
2024/02/10 05:30:24;;;;;;;;;;;;;;;8.77;100.00;96816.51;135599;1279;22637;-72
2024/02/10 05:33:27;;;;;;;60.10;30.90;;;;;;;8.84;100.00;96819.55;135607;1279;25311;-61
2024/02/10 05:36:30;;;;;;;54.60;28.60;;;;;;;9.14;100.00;96813.30;135590;1279;23120;-60
2024/02/10 05:39:33;;;;;;;58.10;30.30;;;;;;;9.24;100.00;96810.23;135630;1279;22548;-65
2024/02/10 05:42:36;;;;;;;;;;;;;;;9.25;100.00;96808.67;135661;1279;24207;-61
2024/02/10 05:45:39;;;;;;;64.70;32.30;;;;;;;9.26;100.00;96808.23;135553;1279;25892;-70
2024/02/10 05:48:42;;;;;;;;;;;;;;;9.22;100.00;96813.55;135642;1279;22537;-61
2024/02/10 05:51:44;;;;;;;75.40;36.00;;;;;;;9.10;100.00;96817.65;135398;1279;22561;-66
2024/02/10 05:54:47;;;;;;;66.40;33.30;;;;;;;9.15;100.00;96814.11;135610;1279;22548;-67
2024/02/10 05:57:49;;;;;;;;;;;;;;;9.13;100.00;96820.91;135501;1279;22526;-70
2024/02/10 06:00:52;;;;;;;57.10;29.50;;;;;;;9.11;100.00;96824.21;135611;1279;22610;-68
2024/02/10 06:03:54;;;;;;;54.40;28.50;;;;;;;9.20;100.00;96824.52;135607;1279;22554;-59
2024/02/10 06:06:57;;;;;;;;;;;;;;;9.21;100.00;96827.17;135554;1279;22759;-68
2024/02/10 06:10:00;;;;;;;55.10;29.70;;;;;;;9.33;100.00;96826.67;135621;1279;22541;-63
2024/02/10 06:13:02;;;;;;;;;;;;;;;9.29;100.00;96827.39;135633;1279;24238;-69
2024/02/10 06:16:05;;;;;;;53.70;28.10;;;;;;;9.27;100.00;96830.02;135616;1279;22539;-62
2024/02/10 06:19:08;;;;;;;56.70;29.20;;;;;;;9.21;100.00;96831.54;135592;1279;22554;-61
2024/02/10 06:22:10;;;;;;;53.50;26.80;;;;;;;9.24;100.00;96832.23;135629;1279;25300;-67
2024/02/10 06:25:13;;;;;;;;;;;;;;;9.31;100.00;96839.53;135606;1261;22503;-71
2024/02/10 06:28:19;;;;;;;49.90;26.20;;;;;;;9.40;100.00;96841.76;135616;1279;22534;-68
2024/02/10 06:31:25;;;;;;;48.70;26.10;;;;;;;9.39;100.00;96846.25;135609;1279;25261;-62
2024/02/10 06:34:28;;;;;;;45.30;24.30;;;;;;;9.49;100.00;96851.50;135581;1279;22550;-69
2024/02/10 06:37:32;;;;;;;44.20;23.70;;;;;;;9.56;100.00;96850.69;135574;1279;22596;-61
2024/02/10 06:40:35;;;;;;;44.00;23.90;;;;;;;9.55;100.00;96851.98;135570;1277;22536;-62
2024/02/10 06:43:38;;;;;;;;;;;;;;;9.58;100.00;96853.14;135658;1279;22626;-68
2024/02/10 06:46:41;;;;;;;47.80;23.90;;;;;;;9.55;100.00;96853.94;135579;1279;22543;-68
2024/02/10 06:49:44;;;;;;;;;;;;;;;9.64;100.00;96855.58;135673;1279;25472;-59
2024/02/10 06:52:47;;;;;;;47.00;24.50;;;;;;;9.71;100.00;96850.40;135658;1279;23884;-67
2024/02/10 06:55:50;;;;;;;44.40;22.80;;;;;;;9.74;100.00;96855.38;135637;1279;22543;-69
2024/02/10 06:58:53;;;;;;;45.90;24.00;;;;;;;9.76;100.00;96855.72;135607;1279;22548;-60
2024/02/10 07:01:56;;;;;;;45.00;22.90;;;;;;;9.73;100.00;96860.35;135702;1279;22531;-62
2024/02/10 07:04:58;;;;;;;;;;;;;;;9.81;100.00;96861.21;135641;1279;22563;-65
2024/02/10 07:08:01;;;;;;;42.40;20.90;;;;;;;9.85;100.00;96854.38;135609;1279;25266;-68
2024/02/10 07:11:04;;;;;;;36.60;19.40;;;;;;;9.91;100.00;96855.95;135618;1279;25377;-70
2024/02/10 07:14:08;;;;;;;;;;;;;;;9.87;100.00;96863.77;135624;1279;22560;-69
2024/02/10 07:17:10;;;;;;;38.60;19.70;;;;;;;9.89;100.00;96863.47;135655;1279;22551;-69
2024/02/10 07:20:18;;;;;;;;;;;;;;;10.07;100.00;96862.02;135625;1279;22533;-72
2024/02/10 07:23:26;;;;;;;40.00;21.10;;;;;;;10.09;100.00;96861.20;135636;1279;22532;-69
2024/02/10 07:26:30;;;;;;;39.60;20.70;;;;;;;10.03;100.00;96861.83;135599;1260;22547;-68
2024/02/10 07:29:35;;;;;;;39.00;20.00;;;;;;;10.13;100.00;96864.12;135595;1279;22550;-71
2024/02/10 07:32:38;;;;;;;35.80;18.30;;;;;;;10.27;100.00;96867.58;135578;1262;22551;-64
2024/02/10 07:35:43;;;;;;;;;;;;;;;10.28;100.00;96867.34;135592;1279;22510;-67
2024/02/10 07:38:45;;;;;;;38.10;19.00;;;;;;;10.28;100.00;96861.74;135601;1279;22600;-68
2024/02/10 07:41:48;;;;;;;;;;;;;;;10.56;100.00;96856.58;135595;1279;22525;-65
2024/02/10 07:44:55;;;;;;;41.50;21.80;;;;;;;10.48;100.00;96852.53;135605;1279;22539;-70
2024/02/10 07:48:01;;;;;;;42.50;21.00;;;;;;;10.55;100.00;96851.58;135578;1279;25305;-68
2024/02/10 07:51:03;;;;;;;37.90;20.00;;;;;;;10.73;100.00;96845.94;135605;1279;22532;-71
2024/02/10 07:54:06;;;;;;;39.20;19.40;;;;;;;10.78;100.00;96835.15;135609;1279;22543;-68
2024/02/10 07:57:15;;;;;;;34.00;16.00;;;;;;;10.84;100.00;96829.73;135604;1279;22591;-62
2024/02/10 08:00:27;;;;;;;33.60;17.10;;;;;;;10.91;100.00;96829.77;131501;1279;5365742;-68
2024/02/10 08:03:30;;;;;;;33.90;15.80;;;;;;;11.00;100.00;96828.19;135535;1279;22536;-71
2024/02/10 08:06:33;;;;;;;32.50;15.60;;;;;;;11.30;100.00;96826.61;135619;1279;25335;-69
2024/02/10 08:09:35;;;;;;;;;;;;;;;11.41;100.00;96820.44;135627;1279;22506;-69
2024/02/10 08:12:38;;;;;;;33.10;15.70;;;;;;;11.63;100.00;96816.92;135582;1279;22543;-71
2024/02/10 08:15:41;;;;;;;30.20;14.50;;;;;;;11.72;100.00;96813.59;135575;1279;22557;-70
2024/02/10 08:18:44;;;;;;;29.70;13.80;;;;;;;11.76;100.00;96814.27;135598;1279;22545;-73
2024/02/10 08:21:46;;;;;;;32.00;15.10;;;;;;;11.83;100.00;96815.01;135576;1279;22535;-64
2024/02/10 08:24:51;;;;;;;33.30;15.40;;;;;;;11.90;100.00;96812.38;135566;1279;25299;-69
2024/02/10 08:27:56;;;;;;;32.30;15.00;;;;;;;11.78;100.00;96811.94;135588;1279;22539;-72
2024/02/10 08:30:59;;;;;;;32.80;15.90;;;;;;;11.79;100.00;96814.52;135631;1279;22531;-64
2024/02/10 08:34:02;;;;;;;34.20;16.40;;;;;;;11.92;100.00;96819.89;135621;1279;22540;-69
2024/02/10 08:37:04;;;;;;;35.00;16.10;;;;;;;11.92;100.00;96824.84;135573;1279;22720;-64
2024/02/10 08:40:09;;;;;;;32.80;15.10;;;;;;;12.05;100.00;96827.98;135636;1279;22530;-68
2024/02/10 08:43:13;;;;;;;32.30;15.30;;;;;;;12.12;100.00;96833.41;135627;1279;22586;-69
2024/02/10 08:46:16;;;;;;;35.00;16.00;;;;;;;12.32;100.00;96833.18;135595;1279;22541;-68
2024/02/10 08:49:18;;;;;;;;;;;;;;;12.40;100.00;96830.43;135586;1279;22507;-66
2024/02/10 08:52:21;;;;;;;35.50;16.60;;;;;;;12.57;100.00;96829.68;135621;1279;22532;-71
2024/02/10 08:55:27;;;;;;;;;;;;;;;12.74;100.00;96824.98;135621;1270;22567;-70
2024/02/10 08:58:30;;;;;;;34.80;16.50;;;;;;;12.93;100.00;96825.15;135626;1279;22533;-68
2024/02/10 09:01:32;;;;;;;36.90;16.20;;;;;;;12.96;100.00;96829.58;135641;1279;22540;-71
2024/02/10 09:04:35;;;;;;;36.00;17.60;;;;;;;13.01;100.00;96828.70;135584;1279;22532;-70
2024/02/10 09:07:38;;;;;;;;;;;;;;;13.06;100.00;96825.70;135671;1279;22511;-66
2024/02/10 09:10:40;;;;;;;34.40;16.00;;;;;;;13.23;100.00;96825.70;135607;1279;22559;-70
2024/02/10 09:13:44;;;;;;;34.30;14.60;;;;;;;13.29;100.00;96827.37;135566;1279;22559;-67
2024/02/10 09:16:47;;;;;;;30.00;14.30;;;;;;;13.40;100.00;96833.71;135623;1279;22536;-63
2024/02/10 09:19:50;;;;;;;33.10;14.80;;;;;;;13.47;100.00;96837.83;135564;1279;22532;-60
2024/02/10 09:22:53;;;;;;;32.50;14.20;;;;;;;13.51;100.00;96838.62;135628;1276;26561;-70
2024/02/10 09:25:55;;;;;;;31.90;15.60;;;;;;;13.24;100.00;96841.96;135610;1279;23974;-72
2024/02/10 09:28:58;;;;;;;32.10;15.30;;;;;;;13.34;100.00;96837.20;135598;1279;22542;-67
2024/02/10 09:32:00;;;;;;;;;;;;;;;13.42;100.00;96838.36;135571;1279;22509;-69
2024/02/10 09:35:03;;;;;;;33.90;15.80;;;;;;;13.44;100.00;96842.90;135492;1279;22538;-69
2024/02/10 09:38:12;;;;;;;28.90;14.50;;;;;;;13.57;100.00;96847.39;135592;1279;22557;-71
2024/02/10 09:41:16;;;;;;;30.70;13.90;;;;;;;13.50;100.00;96848.63;135614;1279;22553;-70
2024/02/10 09:44:18;;;;;;;33.20;14.70;;;;;;;13.53;100.00;96847.24;135547;1279;22539;-69
2024/02/10 09:47:23;;;;;;;;;;;;;;;13.62;100.00;96849.31;135613;1279;22513;-61
2024/02/10 09:50:28;;;;;;;30.30;14.10;;;;;;;13.51;100.00;96851.84;135563;1279;22538;-68
2024/02/10 09:53:31;;;;;;;30.30;14.20;;;;;;;13.34;100.00;96858.13;135609;1279;24719;-68
2024/02/10 09:56:34;;;;;;;29.20;13.50;;;;;;;13.35;100.00;96859.96;135579;1279;22525;-69
2024/02/10 09:59:39;;;;;;;29.50;13.50;;;;;;;13.52;100.00;96863.84;135605;1279;22526;-71
2024/02/10 10:02:41;;;;;;;30.90;13.40;;;;;;;13.65;100.00;96859.86;135591;1279;22560;-69
2024/02/10 10:05:45;;;;;;;;;;;;;;;13.82;100.00;96860.02;135641;1279;22518;-71
2024/02/10 10:08:48;;;;;;;28.40;12.30;;;;;;;13.89;100.00;96859.83;135582;1260;22565;-67
2024/02/10 10:11:51;;;;;;;29.70;13.30;;;;;;;13.87;100.00;96857.04;135577;1279;22552;-68
2024/02/10 10:14:54;;;;;;;;;;;;;;;13.91;100.00;96853.78;135634;1279;22538;-68
2024/02/10 10:17:56;;;;;;;28.90;13.40;;;;;;;13.93;100.00;96849.41;135654;1279;22585;-70
2024/02/10 10:20:59;;;;;;;;;;;;;;;14.01;100.00;96851.59;135624;1279;22648;-63
2024/02/10 10:24:01;;;;;;;28.80;13.30;;;;;;;14.09;100.00;96854.56;135628;1279;24248;-69
2024/02/10 10:27:04;;;;;;;;;;;;;;;14.20;100.00;96853.24;135637;1279;22533;-69
2024/02/10 10:30:07;;;;;;;28.20;13.20;;;;;;;14.32;100.00;96849.98;135582;1261;22560;-68
2024/02/10 10:33:09;;;;;;;29.50;13.00;;;;;;;14.30;100.00;96845.10;135586;1279;22550;-67
2024/02/10 10:36:12;;;;;;;;;;;;;;;14.37;100.00;96843.27;135577;1279;22512;-68
2024/02/10 10:39:15;;;;;;;30.20;14.90;;;;;;;14.41;100.00;96842.16;135616;1274;22549;-69
2024/02/10 10:42:17;;;;;;;30.10;15.20;;;;;;;14.54;100.00;96840.95;135578;1279;22539;-71
2024/02/10 10:45:20;;;;;;;29.60;13.80;;;;;;;14.53;100.00;96843.48;135618;1279;22648;-66
2024/02/10 10:48:23;;;;;;;29.70;13.40;;;;;;;14.49;100.00;96840.02;135586;1279;22533;-69
2024/02/10 10:51:25;;;;;;;;;;;;;;;14.40;100.00;96837.98;135613;1279;22619;-69
2024/02/10 10:54:27;;;;;;;27.80;11.90;;;;;;;14.49;100.00;96837.40;135593;1270;22644;-68
2024/02/10 10:57:37;;;;;;;26.50;11.60;;;;;;;14.85;100.00;96831.06;135586;1279;22536;-63
2024/02/10 11:00:39;;;;;;;;;;;;;;;14.98;100.00;96829.23;135617;1279;22529;-66
2024/02/10 11:03:42;;;;;;;28.80;12.10;;;;;;;15.12;100.00;96835.99;135515;1279;25333;-61
2024/02/10 11:06:45;;;;;;;25.90;11.50;;;;;;;15.15;100.00;96832.85;135618;1279;22529;-64
2024/02/10 11:09:47;;;;;;;27.20;11.30;;;;;;;15.12;100.00;96830.30;135608;1262;22535;-70
2024/02/10 11:12:52;;;;;;;;;;;;;;;15.07;100.00;96828.73;135636;1279;22510;-63
2024/02/10 11:15:55;;;;;;;25.10;11.00;;;;;;;15.14;100.00;96829.45;135627;1279;22649;-70
2024/02/10 11:18:57;;;;;;;23.20;9.80;;;;;;;15.08;100.00;96824.01;135550;1279;24374;-70
2024/02/10 11:22:01;;;;;;;26.40;11.20;;;;;;;15.08;100.00;96821.20;135588;1279;22614;-65
2024/02/10 11:25:07;;;;;;;23.90;11.00;;;;;;;15.04;100.00;96820.91;135589;1279;22548;-69
2024/02/10 11:28:09;;;;;;;27.10;10.70;;;;;;;15.08;100.00;96814.69;135580;1279;24388;-68
2024/02/10 11:31:12;;;;;;;;;;;;;;;15.18;100.00;96821.16;135591;1279;22951;-68
2024/02/10 11:34:16;;;;;;;26.20;11.70;;;;;;;15.08;100.00;96821.56;135627;1262;22562;-70
2024/02/10 11:37:19;;;;;;;27.40;11.90;;;;;;;14.99;100.00;96817.11;135619;1279;22549;-71
2024/02/10 11:40:22;;;;;;;27.20;12.60;;;;;;;14.94;100.00;96814.11;135573;1279;25348;-65
2024/02/10 11:43:26;;;;;;;27.10;11.90;;;;;;;14.99;100.00;96813.14;135514;1279;22562;-68
2024/02/10 11:46:29;;;;;;;26.20;11.20;;;;;;;15.13;100.00;96810.42;135620;1279;22535;-67
2024/02/10 11:49:31;;;;;;;25.40;11.40;;;;;;;15.26;100.00;96809.37;135592;1279;22550;-66
2024/02/10 11:52:36;;;;;;;;;;;;;;;15.34;100.00;96812.50;135629;1279;22524;-66
2024/02/10 11:55:41;;;;;;;27.20;12.10;;;;;;;15.44;100.00;96817.90;135618;1279;22591;-70
2024/02/10 11:58:45;;;;;;;25.20;11.00;;;;;;;15.42;100.00;96828.93;135636;1279;22562;-66
2024/02/10 12:01:47;;;;;;;26.40;11.20;;;;;;;15.40;100.00;96829.54;135582;1279;25243;-64
2024/02/10 12:04:50;;;;;;;;;;;;;;;15.35;100.00;96827.28;135539;1279;25215;-67
2024/02/10 12:07:53;;;;;;;28.60;11.80;;;;;;;15.42;100.00;96821.23;135624;1279;22572;-68
2024/02/10 12:10:56;;;;;;;24.90;10.50;;;;;;;15.46;100.00;96825.77;135646;1279;22544;-70
2024/02/10 12:13:58;;;;;;;25.50;9.70;;;;;;;15.57;100.00;96839.29;135580;1279;22539;-71
2024/02/10 12:17:01;;;;;;;;;;;;;;;16.00;100.00;96839.78;135638;1279;22506;-68
2024/02/10 12:20:04;;;;;;;27.30;11.50;;;;;;;16.15;100.00;96842.84;135667;1279;22544;-68
2024/02/10 12:23:06;;;;;;;25.20;9.90;;;;;;;16.29;100.00;96838.77;135618;1279;25287;-66
2024/02/10 12:26:09;;;;;;;;;;;;;;;16.45;100.00;96836.02;135654;1279;22657;-70
2024/02/10 12:29:12;;;;;;;;;;;;;;;16.59;100.00;96836.31;135645;1279;22549;-66
2024/02/10 12:32:15;;;;;;;24.40;9.70;;;;;;;16.61;100.00;96839.04;135553;1279;22568;-70
2024/02/10 12:35:19;;;;;;;30.10;13.10;;;;;;;16.47;100.00;96845.62;135622;1279;22558;-69
2024/02/10 12:38:25;;;;;;;24.50;9.60;;;;;;;16.44;100.00;96845.64;135609;1279;22651;-61
2024/02/10 12:41:27;;;;;;;36.70;16.70;;;;;;;16.43;100.00;96851.38;135628;1270;25480;-68
2024/02/10 12:44:31;;;;;;;26.70;11.00;;;;;;;16.40;100.00;96854.35;135654;1279;22532;-63
2024/02/10 12:47:37;;;;;;;26.70;12.00;;;;;;;16.40;100.00;96856.14;135610;1263;22533;-68
2024/02/10 12:50:40;;;;;;;27.30;11.50;;;;;;;16.72;100.00;96847.52;135641;1279;22525;-70
2024/02/10 12:53:43;;;;;;;24.30;9.50;;;;;;;17.14;100.00;96840.23;135598;1268;22551;-69
2024/02/10 12:56:45;;;;;;;22.80;9.20;;;;;;;17.22;99.97;96843.68;135620;1279;24888;-67
2024/02/10 12:59:48;;;;;;;25.10;9.60;;;;;;;17.15;99.72;96848.23;135641;1279;22538;-72
2024/02/10 13:02:50;;;;;;;23.00;9.00;;;;;;;17.08;99.60;96845.52;135577;1279;22644;-68
2024/02/10 13:05:54;;;;;;;24.10;9.30;;;;;;;16.98;99.51;96851.70;135539;1279;22552;-68
2024/02/10 13:08:56;;;;;;;24.50;9.30;;;;;;;16.97;99.48;96851.21;135633;1279;22532;-68
2024/02/10 13:11:59;;;;;;;;;;;;;;;17.00;99.18;96847.70;135600;1279;22542;-61
2024/02/10 13:15:01;;;;;;;24.60;9.90;;;;;;;16.92;98.75;96846.39;135586;1279;22562;-67
2024/02/10 13:18:04;;;;;;;;;;;;;;;16.66;99.92;96840.88;135607;1279;22539;-68
2024/02/10 13:21:06;;;;;;;22.90;9.30;;;;;;;16.45;100.00;96836.14;135592;1279;22546;-69
2024/02/10 13:24:09;;;;;;;24.30;9.50;;;;;;;16.19;100.00;96837.91;135590;1279;22531;-67
2024/02/10 13:27:12;;;;;;;25.40;10.00;;;;;;;15.92;100.00;96840.77;135592;1279;22762;-63
2024/02/10 13:30:17;;;;;;;25.70;11.10;;;;;;;15.78;100.00;96844.37;135598;1279;22539;-61
2024/02/10 13:33:20;;;;;;;26.10;10.80;;;;;;;15.63;100.00;96846.04;135584;1279;22560;-66
2024/02/10 14:06:08;;;;;;;30.00;14.30;;;;;;;15.30;100.00;96876.80;135591;1279;22533;-69
2024/02/10 14:09:11;;;;;;;29.10;13.70;;;;;;;14.94;100.00;96879.90;135593;1279;22532;-70
2024/02/10 14:12:14;;;;;;;28.50;13.20;;;;;;;14.97;100.00;96879.20;135655;1279;22535;-69
2024/02/10 14:15:17;;;;;;;29.60;13.10;;;;;;;14.94;100.00;96877.11;135539;1279;24269;-68
2024/02/10 14:18:25;;;;;;;29.30;13.50;;;;;;;14.96;100.00;96875.64;135598;1279;22559;-73
2024/02/10 14:21:32;;;;;;;28.10;13.50;;;;;;;14.96;100.00;96867.38;135542;1270;25588;-68
2024/02/10 14:24:36;;;;;;;32.30;15.20;;;;;;;14.96;100.00;96853.41;135597;1279;22544;-68
2024/02/10 14:27:43;;;;;;;32.40;15.00;;;;;;;14.87;100.00;96850.96;135608;1279;22536;-70
2024/02/10 14:30:47;;;;;;;31.30;14.40;;;;;;;14.88;100.00;96851.33;135641;1279;22553;-69
2024/02/10 14:33:52;;;;;;;33.70;15.30;;;;;;;14.77;100.00;96851.98;135603;1279;25487;-69
2024/02/10 14:37:07;;;;;;;30.20;14.50;;;;;;;14.74;100.00;96850.77;135607;1262;22535;-69
2024/02/10 14:40:11;;;;;;;34.30;15.60;;;;;;;14.73;100.00;96848.38;135459;1279;26625;-68